Gilark, Louisiana
Current Conditions -  °F | °C
As of 6:15 PM on Sunday 25 Jan 2015 (Local Time) from KMNE Reporting Station
Clear Clear  
Wind Chill: 58°   Ceiling: Unl
Heat Index: 58°   Visibility: 10mi
Dew Point: 31°   Wind: 9mph
Humidity: 36%   Direction: 300°WNW
Pressure: 29.97"   Gusts: NA
Location:  32.7093°N, 93.3068°W
Report Text: KMNE 260015Z AUTO 30008KT 10SM CLR 14/00 A2997 RMK AO2 T01441005
Loading
Personal Weather Stations






























Interactive Weather Map New forecast layout! Learn more

10-Day Weather Forecast

Advertisements
Track Severe Weather on mobile